Time;durP1;ratioP1;P1;durP2;ratioP2;P2;SDS_P1;SDS_P2;PMS_P1;PMS_P2;Temp;Humidity;BMP_temperature;BMP_pressure;BME280_temperature;BME280_humidity;BME280_pressure;Samples;Min_cycle;Max_cycle;Signal;HPM_P1;HPM_P2
2022/05/16 00:00:28;;;;;;;4.63;1.90;;;13.90;56.70;;;;;;5142223;27;20475;-63
2022/05/16 00:02:56;;;;;;;3.73;1.87;;;13.90;57.00;;;;;;5142021;27;20467;-64
2022/05/16 00:05:24;;;;;;;6.40;2.00;;;13.90;57.20;;;;;;5141354;27;20448;-63
2022/05/16 00:07:53;;;;;;;5.83;2.50;;;13.90;57.40;;;;;;5140576;28;20440;-64
2022/05/16 00:10:20;;;;;;;4.37;2.23;;;13.80;57.70;;;;;;5142183;27;20489;-64
2022/05/16 00:12:47;;;;;;;4.03;2.17;;;13.80;57.90;;;;;;5139297;28;20448;-63
2022/05/16 00:15:17;;;;;;;4.77;2.27;;;13.80;58.20;;;;;;5140108;28;20482;-63
2022/05/16 00:17:45;;;;;;;3.13;1.80;;;13.70;58.40;;;;;;5139231;28;20440;-63
2022/05/16 00:20:13;;;;;;;3.80;2.30;;;13.70;58.50;;;;;;5141558;28;20927;-63
2022/05/16 00:22:40;;;;;;;3.67;2.10;;;13.70;58.70;;;;;;5139816;28;20810;-63
2022/05/16 00:25:10;;;;;;;5.83;2.87;;;13.70;58.80;;;;;;5139669;27;20447;-63
2022/05/16 00:27:37;;;;;;;6.53;2.40;;;13.70;58.90;;;;;;5143306;27;20443;-63
2022/05/16 00:30:05;;;;;;;2.50;2.20;;;13.70;59.20;;;;;;5143126;27;20444;-62
2022/05/16 00:32:33;;;;;;;4.97;2.07;;;13.60;59.30;;;;;;5141834;27;20455;-64
2022/05/16 00:35:01;;;;;;;4.23;1.87;;;;;;;;;;5140953;27;20471;-62
2022/05/16 00:37:29;;;;;;;2.83;2.07;;;;;;;;;;5140113;27;20447;-63
2022/05/16 00:39:56;;;;;;;4.43;2.73;;;;;;;;;;5140049;27;20444;-63
2022/05/16 00:42:23;;;;;;;3.77;2.20;;;;;;;;;;5141315;27;20448;-63
2022/05/16 00:44:50;;;;;;;2.27;1.90;;;;;;;;;;5139952;27;20456;-62
2022/05/16 00:47:18;;;;;;;5.17;2.80;;;;;;;;;;5140418;27;20455;-62
2022/05/16 00:49:47;;;;;;;2.47;2.10;;;;;;;;;;5139348;27;20958;-63
2022/05/16 00:52:17;;;;;;;3.10;2.33;;;;;;;;;;5140583;27;20444;-64
2022/05/16 00:54:46;;;;;;;6.57;2.43;;;;;;;;;;5139441;27;20479;-62
2022/05/16 00:57:16;;;;;;;3.63;2.20;;;;;;;;;;5139771;27;20444;-62
2022/05/16 00:59:46;;;;;;;3.57;2.10;;;;;;;;;;5140247;27;20437;-63
2022/05/16 01:04:58;;;;;;;5.33;2.10;;;;;;;;;;5139449;27;20850;-63
2022/05/16 01:07:29;;;;;;;4.40;2.07;;;;;;;;;;5139874;27;20445;-63
2022/05/16 01:09:56;;;;;;;3.90;2.30;;;;;;;;;;5140435;27;20420;-63
2022/05/16 01:12:25;;;;;;;2.20;2.00;;;;;;;;;;5140669;27;20472;-63
2022/05/16 01:14:53;;;;;;;4.50;2.30;;;;;;;;;;5140614;27;20476;-63
2022/05/16 01:17:21;;;;;;;4.17;2.13;;;;;;;;;;5141260;27;20444;-63
2022/05/16 01:19:48;;;;;;;3.67;2.10;;;;;;;;;;5140600;27;20452;-63
2022/05/16 01:22:22;;;;;;;3.83;2.50;;;;;;;;;;5141630;27;20458;-60
2022/05/16 01:24:49;;;;;;;7.73;1.90;;;;;;;;;;5140500;27;20475;-64
2022/05/16 01:27:17;;;;;;;3.03;2.70;;;;;;;;;;5140238;27;20863;-63
2022/05/16 01:29:44;;;;;;;2.30;2.10;;;;;;;;;;5139111;27;20448;-63
2022/05/16 01:32:11;;;;;;;3.30;2.20;;;;;;;;;;5139340;27;20500;-63
2022/05/16 01:34:40;;;;;;;5.07;2.10;;;;;;;;;;5138522;27;20560;-62
2022/05/16 01:37:07;;;;;;;2.63;2.03;;;;;;;;;;5138058;27;20470;-63
2022/05/16 01:39:36;;;;;;;5.40;2.20;;;;;;;;;;5138801;27;20459;-63
2022/05/16 01:42:04;;;;;;;4.47;2.40;;;;;;;;;;5139180;27;20447;-63
2022/05/16 01:44:31;;;;;;;3.40;1.90;;;;;;;;;;5138674;27;20808;-63
2022/05/16 01:46:58;;;;;;;2.70;2.50;;;;;;;;;;5138580;27;20455;-62
2022/05/16 01:49:26;;;;;;;4.23;2.30;;;;;;;;;;5138677;27;20441;-63
2022/05/16 01:51:53;;;;;;;4.53;2.23;;;;;;;;;;5139058;27;20830;-63
2022/05/16 01:54:20;;;;;;;2.83;2.30;;;;;;;;;;5141131;27;20480;-64
2022/05/16 01:56:49;;;;;;;3.23;2.03;;;;;;;;;;5139691;27;20455;-63
2022/05/16 01:59:17;;;;;;;3.67;2.30;;;;;;;;;;5139742;27;20440;-63
2022/05/16 02:01:44;;;;;;;2.90;1.90;;;;;;;;;;5140004;27;20448;-63
2022/05/16 02:04:12;;;;;;;2.93;1.93;;;;;;;;;;5140123;27;20464;-63
2022/05/16 02:06:39;;;;;;;3.10;2.10;;;;;;;;;;5140479;27;21008;-63
2022/05/16 02:09:07;;;;;;;3.00;2.10;;;;;;;;;;5140448;27;20445;-63
2022/05/16 02:11:34;;;;;;;3.33;2.30;;;;;;;;;;5139953;27;20451;-63
2022/05/16 02:14:03;;;;;;;4.13;2.43;;;;;;;;;;5139479;27;20471;-63
2022/05/16 02:16:30;;;;;;;3.93;2.40;;;;;;;;;;5140398;27;20443;-63
2022/05/16 02:18:57;;;;;;;5.50;2.37;;;;;;;;;;5139851;27;20444;-63
2022/05/16 02:26:54;;;;;;;6.30;2.30;;;;;;;;;;5139155;27;20395;-63
2022/05/16 02:29:23;;;;;;;3.00;2.50;;;;;;;;;;5138762;27;20436;-62
2022/05/16 02:31:50;;;;;;;3.60;2.27;;;;;;;;;;5138648;27;20448;-62
2022/05/16 02:34:18;;;;;;;4.53;2.00;;;;;;;;;;5157871;22;20508;-63
2022/05/16 02:36:45;;;;;;;2.70;2.20;;;;;;;;;;5136147;27;20816;-62
2022/05/16 02:39:13;;;;;;;3.00;2.00;;;;;;;;;;5136540;27;20464;-62
2022/05/16 02:41:40;;;;;;;5.30;2.30;;;;;;;;;;5148818;27;20440;-61
2022/05/16 02:44:08;;;;;;;3.20;2.17;;;;;;;;;;5136132;27;20483;-63
2022/05/16 02:46:37;;;;;;;4.03;2.57;;;;;;;;;;5135734;27;20492;-62
2022/05/16 02:49:04;;;;;;;5.17;2.57;;;;;;;;;;5134980;27;20454;-62
2022/05/16 02:51:31;;;;;;;3.00;1.93;;;;;;;;;;5135819;27;20436;-60
2022/05/16 02:53:59;;;;;;;4.30;2.30;;;;;;;;;;5135583;27;20828;-61
2022/05/16 02:56:26;;;;;;;4.83;2.60;;;;;;;;;;5135451;27;20476;-61
2022/05/16 02:58:53;;;;;;;3.37;2.40;;;;;;;;;;5135190;27;20440;-61
2022/05/16 03:01:21;;;;;;;5.70;2.33;;;;;;;;;;5135358;27;20448;-62
2022/05/16 03:03:50;;;;;;;4.13;2.50;;;;;;;;;;5135161;27;20956;-62
2022/05/16 03:06:18;;;;;;;3.73;2.20;;;;;;;;;;5135172;27;20440;-62
2022/05/16 03:08:45;;;;;;;2.70;2.10;;;;;;;;;;5135324;27;20450;-61
2022/05/16 03:11:13;;;;;;;3.30;2.20;;;;;;;;;;5135208;27;20451;-63
2022/05/16 03:13:40;;;;;;;4.40;2.50;;;;;;;;;;5135446;27;20471;-62
2022/05/16 03:16:07;;;;;;;4.40;2.50;;;;;;;;;;5135007;27;20468;-62
2022/05/16 03:18:35;;;;;;;3.07;2.23;;;;;;;;;;5134855;27;20558;-62
2022/05/16 03:21:03;;;;;;;3.10;2.47;;;;;;;;;;5134763;27;20435;-62
2022/05/16 03:23:31;;;;;;;3.70;2.63;;;;;;;;;;5134925;27;20500;-61
2022/05/16 03:25:59;;;;;;;4.30;2.50;;;;;;;;;;5135401;27;20448;-60
2022/05/16 03:28:26;;;;;;;4.00;2.55;;;;;;;;;;5135754;27;20454;-62
2022/05/16 03:30:57;;;;;;;3.20;2.57;;;;;;;;;;5134981;27;20234;-62
2022/05/16 03:33:25;;;;;;;3.53;2.60;;;;;;;;;;5135062;27;20468;-62
2022/05/16 03:35:55;;;;;;;3.23;2.10;;;;;;;;;;5135080;27;20456;-62
2022/05/16 03:41:10;;;;;;;3.20;2.33;;;;;;;;;;5134820;27;20178;-62
2022/05/16 03:43:37;;;;;;;6.20;3.27;;;;;;;;;;5134655;27;20464;-62
2022/05/16 03:46:05;;;;;;;11.90;3.15;;;;;;;;;;5134520;27;20441;-62
2022/05/16 03:48:32;;;;;;;3.83;2.30;;;;;;;;;;5134180;27;20203;-62
2022/05/16 03:50:59;;;;;;;5.40;2.80;;;;;;;;;;5134599;27;20448;-62
2022/05/16 03:53:28;;;;;;;2.43;2.10;;;;;;;;;;5134604;27;20495;-62
2022/05/16 03:55:56;;;;;;;3.30;2.60;;;;;;;;;;5134150;27;20472;-62
2022/05/16 03:58:23;;;;;;;4.57;2.50;;;;;;;;;;5134439;27;20444;-62
2022/05/16 04:00:51;;;;;;;5.33;3.30;;;;;;;;;;5133896;27;20445;-61
2022/05/16 04:03:18;;;;;;;3.80;2.40;;;;;;;;;;5134085;27;20444;-62
2022/05/16 04:05:45;;;;;;;5.83;2.87;;;;;;;;;;5134280;27;20523;-62
2022/05/16 04:09:47;;;;;;;4.47;2.67;;;11.80;83.80;;;;;;5091278;27;20533;-62
2022/05/16 04:12:14;;;;;;;3.60;2.57;;;12.10;82.50;;;;;;5091075;28;20818;-62
2022/05/16 04:14:41;;;;;;;4.53;2.60;;;12.40;81.30;;;;;;5091407;28;20462;-62
2022/05/16 04:17:08;;;;;;;4.23;2.60;;;12.60;80.00;;;;;;5091343;28;20443;-62
2022/05/16 04:19:36;;;;;;;4.40;2.57;;;12.80;78.60;;;;;;5091195;28;20438;-62
2022/05/16 04:22:03;;;;;;;7.40;3.00;;;12.90;77.60;;;;;;5091299;28;20540;-61
2022/05/16 04:24:30;;;;;;;4.07;2.47;;;13.10;76.40;;;;;;5090931;28;20458;-61
2022/05/16 04:26:58;;;;;;;3.23;2.70;;;13.30;75.20;;;;;;5090832;28;20446;-62
2022/05/16 04:29:25;;;;;;;5.97;2.60;;;13.40;74.10;;;;;;5090739;28;20473;-62
2022/05/16 04:31:52;;;;;;;7.13;3.00;;;13.60;72.90;;;;;;5090391;28;20458;-62
2022/05/16 04:34:20;;;;;;;4.33;2.47;;;13.60;72.20;;;;;;5090537;28;20462;-62
2022/05/16 04:36:47;;;;;;;3.77;2.43;;;13.80;71.90;;;;;;5090563;28;20442;-63
2022/05/16 04:39:14;;;;;;;4.20;2.53;;;14.10;70.80;;;;;;5089960;28;20442;-60
2022/05/16 04:44:26;;;;;;;4.43;2.90;;;14.50;68.00;;;;;;5090567;28;20571;-60
2022/05/16 04:46:54;;;;;;;6.80;2.80;;;14.70;67.00;;;;;;5095056;28;20446;-61
2022/05/16 04:49:21;;;;;;;4.30;2.67;;;14.90;65.90;;;;;;5096064;28;20893;-61
2022/05/16 04:51:48;;;;;;;4.77;2.60;;;15.10;65.00;;;;;;5093599;28;20450;-62
2022/05/16 04:54:15;;;;;;;6.87;3.00;;;15.30;64.20;;;;;;5093550;28;20465;-60
2022/05/16 04:56:42;;;;;;;4.50;2.70;;;15.50;62.90;;;;;;5094342;28;20954;-62
2022/05/16 04:59:10;;;;;;;5.80;2.80;;;15.70;61.90;;;;;;5094413;28;20438;-62
2022/05/16 05:01:39;;;;;;;6.00;2.93;;;15.90;60.80;;;;;;5092691;28;20927;-61
2022/05/16 05:04:06;;;;;;;8.40;3.13;;;16.00;60.10;;;;;;5093118;28;20668;-60
2022/05/16 05:06:33;;;;;;;7.83;2.70;;;16.10;59.40;;;;;;5091248;28;20829;-61
2022/05/16 05:09:00;;;;;;;3.90;2.63;;;16.30;59.00;;;;;;5087737;28;20580;-61
2022/05/16 05:16:54;;;;;;;4.50;3.10;;;16.50;57.10;;;;;;5089419;28;20541;-62
2022/05/16 05:19:21;;;;;;;6.27;3.40;;;16.40;56.70;;;;;;5085656;28;20435;-61
2022/05/16 05:21:49;;;;;;;3.90;2.63;;;16.40;56.70;;;;;;5076002;28;20439;-61
2022/05/16 05:24:16;;;;;;;4.10;2.80;;;16.30;56.60;;;;;;5076150;28;20475;-62
2022/05/16 05:26:44;;;;;;;5.60;2.90;;;16.30;56.60;;;;;;5075011;28;20474;-62
2022/05/16 05:29:11;;;;;;;4.30;3.30;;;16.30;56.40;;;;;;5074705;28;20487;-61
2022/05/16 05:31:41;;;;;;;6.60;3.37;;;16.30;56.20;;;;;;5076051;28;20478;-62
2022/05/16 05:34:11;;;;;;;7.73;3.60;;;16.30;56.10;;;;;;5075838;28;20466;-63
2022/05/16 05:36:38;;;;;;;4.90;2.97;;;16.40;56.10;;;;;;5075632;28;20451;-61
2022/05/16 05:39:06;;;;;;;4.97;2.50;;;16.50;55.90;;;;;;5076566;28;20450;-62
2022/05/16 05:41:33;;;;;;;6.10;3.43;;;16.60;55.70;;;;;;5076420;28;20879;-61
2022/05/16 05:44:00;;;;;;;5.83;3.23;;;16.60;55.30;;;;;;5075591;28;20463;-61
2022/05/16 05:46:27;;;;;;;3.43;2.80;;;16.70;55.30;;;;;;5075019;28;20470;-61
2022/05/16 05:48:55;;;;;;;5.53;3.07;;;16.80;55.20;;;;;;5075543;28;20569;-61
2022/05/16 05:51:23;;;;;;;19.67;3.33;;;16.80;54.90;;;;;;5075389;28;20447;-61
2022/05/16 05:53:50;;;;;;;11.63;3.50;;;16.90;54.70;;;;;;5075871;28;20545;-61
2022/05/16 05:56:17;;;;;;;3.70;3.10;;;16.90;54.80;;;;;;5078955;28;20462;-62
2022/05/16 05:58:46;;;;;;;3.47;2.87;;;16.90;54.60;;;;;;5075496;28;20514;-63
2022/05/16 06:01:13;;;;;;;3.73;3.40;;;16.90;54.40;;;;;;5075429;28;20528;-60
2022/05/16 06:03:40;;;;;;;6.30;3.20;;;16.90;54.30;;;;;;5074936;28;20983;-61
2022/05/16 06:06:07;;;;;;;5.37;3.30;;;16.80;54.10;;;;;;5076475;28;20454;-62
2022/05/16 06:08:36;;;;;;;4.47;3.50;;;16.70;54.20;;;;;;5079315;28;20491;-61
2022/05/16 06:11:03;;;;;;;4.90;3.10;;;16.80;54.30;;;;;;5080935;28;20450;-61
2022/05/16 06:13:30;;;;;;;5.23;3.30;;;16.80;54.00;;;;;;5076013;28;20639;-61
2022/05/16 06:15:57;;;;;;;5.10;3.17;;;16.80;53.80;;;;;;5076172;28;20444;-61
2022/05/16 06:18:24;;;;;;;8.27;2.87;;;16.80;53.70;;;;;;5075082;28;20439;-61
2022/05/16 06:20:51;;;;;;;4.47;2.90;;;16.80;53.80;;;;;;5075457;28;20447;-61
2022/05/16 06:23:18;;;;;;;4.73;3.33;;;16.70;53.60;;;;;;5077465;28;20443;-63
2022/05/16 06:25:47;;;;;;;8.43;3.43;;;16.70;53.60;;;;;;5076164;28;20938;-61
2022/05/16 06:28:17;;;;;;;5.43;3.30;;;16.70;53.70;;;;;;5076240;28;20478;-60
2022/05/16 06:30:46;;;;;;;4.97;3.53;;;16.70;53.70;;;;;;5075030;28;20553;-60
2022/05/16 06:33:15;;;;;;;4.83;3.00;;;16.60;53.90;;;;;;5074817;28;20965;-62
2022/05/16 06:35:43;;;;;;;7.60;4.10;;;16.60;54.00;;;;;;5084074;28;20447;-61
2022/05/16 06:38:13;;;;;;;7.23;3.83;;;16.70;54.10;;;;;;5087066;28;20435;-61
2022/05/16 06:40:42;;;;;;;5.87;2.93;;;16.70;53.90;;;;;;5090712;28;20462;-63
2022/05/16 06:43:11;;;;;;;10.10;4.43;;;16.80;53.80;;;;;;5092265;28;20505;-62
2022/05/16 06:45:40;;;;;;;8.00;3.43;;;17.00;53.80;;;;;;5089762;28;20482;-61
2022/05/16 06:48:08;;;;;;;4.03;3.13;;;17.20;53.60;;;;;;5090894;28;20478;-61
2022/05/16 06:50:36;;;;;;;3.60;3.07;;;17.40;53.30;;;;;;5092286;28;20451;-60
2022/05/16 06:53:04;;;;;;;6.43;4.00;;;17.60;52.90;;;;;;5091870;28;20530;-62
2022/05/16 06:55:32;;;;;;;5.87;3.80;;;17.70;52.60;;;;;;5089890;28;20443;-61
2022/05/16 06:57:59;;;;;;;4.30;3.20;;;17.70;52.40;;;;;;5088791;28;20435;-66
2022/05/16 07:00:28;;;;;;;4.77;3.20;;;17.70;52.40;;;;;;5087413;28;20470;-61
2022/05/16 07:02:55;;;;;;;6.37;3.47;;;17.80;52.30;;;;;;5087112;28;20487;-59
2022/05/16 07:07:57;;;;;;;6.50;3.47;;;17.90;52.00;;;;;;5158379;22;20543;-60
2022/05/16 07:10:25;;;;;;;7.07;3.20;;;17.80;52.10;;;;;;5008894;28;20485;-60
2022/05/16 07:12:52;;;;;;;7.33;3.20;;;17.90;52.30;;;;;;5011460;28;20504;-58
2022/05/16 07:15:20;;;;;;;4.00;3.40;;;18.00;52.40;;;;;;5011726;28;20975;-62
2022/05/16 07:17:49;;;;;;;4.80;3.07;;;18.10;52.20;;;;;;5006316;28;20490;-62
2022/05/16 07:20:16;;;;;;;4.33;3.20;;;18.30;52.60;;;;;;4989537;28;20455;-58
2022/05/16 07:22:45;;;;;;;5.20;3.50;;;18.40;51.80;;;;;;4993258;28;20451;-60
2022/05/16 07:25:13;;;;;;;6.70;3.93;;;18.60;51.60;;;;;;4992226;28;20502;-60
2022/05/16 07:27:59;;;;;;;7.40;3.17;;;18.80;51.20;;;;;;4990992;28;20467;-58
2022/05/16 07:30:27;;;;;;;5.80;3.30;;;18.90;50.90;;;;;;4994620;28;20462;-59
2022/05/16 07:32:56;;;;;;;4.30;3.03;;;19.20;50.80;;;;;;4995299;28;20446;-59
2022/05/16 07:35:26;;;;;;;18.73;3.80;;;19.30;50.30;;;;;;4990857;28;20481;-61
2022/05/16 07:37:54;;;;;;;6.30;3.00;;;19.50;50.00;;;;;;4990274;28;20555;-58
2022/05/16 07:40:23;;;;;;;5.00;3.23;;;19.70;49.50;;;;;;4993225;28;20505;-58
2022/05/16 07:42:51;;;;;;;7.67;3.63;;;19.90;49.30;;;;;;4994251;28;20451;-60
2022/05/16 07:45:18;;;;;;;5.50;2.77;;;20.00;49.00;;;;;;4992514;28;20442;-61
2022/05/16 07:50:22;;;;;;;4.87;3.33;;;20.20;48.70;;;;;;5012009;28;20485;-62
2022/05/16 07:52:49;;;;;;;4.07;3.20;;;20.30;48.60;;;;;;5014180;28;20446;-61
2022/05/16 07:55:19;;;;;;;4.20;2.80;;;20.50;48.50;;;;;;4996748;28;20454;-60
2022/05/16 07:57:46;;;;;;;7.63;3.10;;;20.70;48.30;;;;;;4994599;28;20443;-61
2022/05/16 08:00:14;;;;;;;5.40;3.10;;;20.90;47.90;;;;;;4994070;28;20449;-61
2022/05/16 08:02:41;;;;;;;5.27;2.57;;;21.10;47.50;;;;;;4999010;28;20461;-61
2022/05/16 08:05:10;;;;;;;5.60;3.17;;;21.10;47.10;;;;;;5012052;28;20449;-61
2022/05/16 08:10:29;;;;;;;4.67;3.03;;;21.10;47.00;;;;;;5012530;28;20461;-61
2022/05/16 08:10:31;;;;;;;3.20;2.70;;;21.20;46.80;;;;;;5013161;28;20581;-62
2022/05/16 08:13:00;;;;;;;6.77;3.87;;;21.20;46.50;;;;;;4997355;28;20526;-61
2022/05/16 08:15:27;;;;;;;6.20;2.83;;;21.30;46.30;;;;;;4992566;28;20450;-62
2022/05/16 08:17:54;;;;;;;5.17;3.17;;;21.40;46.20;;;;;;4993453;28;20533;-61
2022/05/16 08:20:23;;;;;;;6.93;3.20;;;21.50;46.10;;;;;;4993791;28;20450;-61
2022/05/16 08:22:51;;;;;;;5.60;3.33;;;21.60;45.90;;;;;;4992422;28;20934;-62
2022/05/16 08:25:18;;;;;;;4.83;2.63;;;21.90;45.80;;;;;;5006866;28;20462;-63
2022/05/16 08:27:46;;;;;;;11.00;3.40;;;22.00;45.60;;;;;;5012448;28;20457;-61
2022/05/16 08:30:14;;;;;;;5.85;3.25;;;22.10;45.50;;;;;;5012448;28;20819;-60
2022/05/16 08:32:42;;;;;;;5.90;3.30;;;22.20;45.30;;;;;;5012533;28;20238;-60
2022/05/16 08:35:11;;;;;;;7.57;3.40;;;22.30;45.30;;;;;;5012946;28;20493;-61
2022/05/16 08:40:39;;;;;;;5.40;3.03;;;22.60;44.80;;;;;;4992873;28;20434;-60
2022/05/16 08:43:12;;;;;;;5.03;3.60;;;22.80;44.50;;;;;;4992827;28;20434;-61
2022/05/16 08:45:42;;;;;;;5.10;3.83;;;22.90;44.20;;;;;;4992359;28;20454;-62
2022/05/16 08:48:17;;;;;;;8.23;3.80;;;23.00;44.10;;;;;;5006002;28;20493;-60
2022/05/16 08:50:51;;;;;;;6.30;3.17;;;23.10;43.90;;;;;;5012287;28;20465;-60
2022/05/16 08:53:23;;;;;;;6.97;3.70;;;23.20;43.60;;;;;;5001795;28;20446;-62
2022/05/16 08:55:54;;;;;;;4.60;3.73;;;23.30;43.40;;;;;;4995730;28;20510;-62
2022/05/16 08:58:27;;;;;;;6.27;3.37;;;23.40;43.20;;;;;;5012069;28;20497;-61
2022/05/16 09:00:58;;;;;;;5.20;3.53;;;23.60;43.00;;;;;;5016954;28;20422;-59
2022/05/16 09:03:27;;;;;;;6.43;3.70;;;23.70;42.90;;;;;;5016220;28;20434;-62
2022/05/16 09:06:01;;;;;;;5.87;3.37;;;23.80;42.80;;;;;;5016886;28;20449;-60
2022/05/16 09:08:40;;;;;;;3.23;2.80;;;23.90;42.60;;;;;;5016373;28;20497;-61
2022/05/16 09:11:12;;;;;;;11.03;3.17;;;24.00;42.40;;;;;;5015055;28;20991;-61
2022/05/16 09:13:48;;;;;;;5.20;3.83;;;24.10;42.30;;;;;;5001201;28;20786;-62
2022/05/16 09:16:37;;;;;;;7.10;3.10;;;24.20;42.10;;;;;;4995480;28;20474;-61
2022/05/16 09:19:19;;;;;;;8.33;3.30;;;24.40;41.80;;;;;;4992820;28;20491;-60
2022/05/16 09:22:02;;;;;;;6.80;2.93;;;24.50;41.80;;;;;;4996526;28;20495;-60
2022/05/16 09:24:35;;;;;;;3.20;2.47;;;24.70;41.60;;;;;;4995732;28;20454;-60
2022/05/16 09:27:09;;;;;;;5.00;3.03;;;24.90;41.30;;;;;;4996247;28;20443;-60
2022/05/16 09:29:39;;;;;;;10.43;2.90;;;24.90;41.10;;;;;;4996805;28;20493;-61
2022/05/16 09:32:10;;;;;;;7.73;3.50;;;24.80;41.10;;;;;;5010904;28;20541;-62
2022/05/16 09:34:37;;;;;;;6.37;3.20;;;24.90;41.10;;;;;;4996246;28;20806;-59
2022/05/16 09:37:05;;;;;;;6.27;3.20;;;25.00;40.80;;;;;;4996444;28;20447;-60
2022/05/16 09:39:39;;;;;;;4.83;3.37;;;25.10;40.60;;;;;;4995408;28;20478;-60
2022/05/16 09:42:16;;;;;;;9.10;3.00;;;25.20;40.60;;;;;;4995917;28;20941;-61
2022/05/16 09:44:46;;;;;;;6.87;2.70;;;25.20;40.30;;;;;;4996418;28;20426;-61
2022/05/16 09:47:21;;;;;;;5.43;2.77;;;25.10;40.20;;;;;;4995533;28;20947;-61
2022/05/16 09:50:15;;;;;;;8.97;3.30;;;25.10;40.30;;;;;;4995544;28;20485;-63
2022/05/16 09:52:46;;;;;;;4.23;2.93;;;25.10;40.30;;;;;;4995851;28;20485;-61
2022/05/16 09:55:23;;;;;;;8.93;3.50;;;25.30;40.20;;;;;;5012531;28;20468;-61
2022/05/16 09:57:56;;;;;;;7.37;4.47;;;25.50;39.90;;;;;;4995559;28;20476;-60
2022/05/16 10:00:32;;;;;;;8.47;2.70;;;25.70;39.60;;;;;;4995130;28;20553;-60
2022/05/16 10:03:13;;;;;;;8.20;3.17;;;25.90;39.30;;;;;;4995544;28;20427;-62
2022/05/16 10:05:46;;;;;;;8.17;3.80;;;26.00;39.20;;;;;;4999396;28;20486;-62
2022/05/16 10:08:22;;;;;;;5.03;2.60;;;26.20;39.00;;;;;;5014029;28;20473;-63
2022/05/16 10:10:50;;;;;;;5.80;3.70;;;26.40;38.70;;;;;;4996719;28;20463;-61
2022/05/16 10:13:19;;;;;;;8.73;4.20;;;26.50;38.50;;;;;;5008513;28;20466;-62
2022/05/16 10:15:49;;;;;;;5.60;3.40;;;26.50;38.30;;;;;;5016724;28;20453;-62
2022/05/16 10:18:20;;;;;;;4.90;3.23;;;26.50;38.30;;;;;;5015885;28;20481;-61
2022/05/16 10:20:52;;;;;;;4.90;3.57;;;26.50;38.30;;;;;;5014379;28;20462;-61
2022/05/16 10:23:24;;;;;;;8.80;4.10;;;26.50;38.10;;;;;;5017019;28;20838;-60
2022/05/16 10:25:55;;;;;;;9.70;4.30;;;26.60;37.90;;;;;;5016963;28;20775;-60
2022/05/16 10:28:29;;;;;;;6.13;3.70;;;26.60;37.80;;;;;;5001515;28;20978;-61
2022/05/16 10:33:45;;;;;;;10.37;3.63;;;26.60;37.80;;;;;;4997407;28;20458;-61
2022/05/16 10:36:23;;;;;;;7.23;4.13;;;26.70;37.90;;;;;;5011732;28;20465;-61
2022/05/16 10:38:58;;;;;;;8.37;3.70;;;26.90;37.90;;;;;;5017102;28;20473;-61
2022/05/16 10:41:30;;;;;;;6.50;4.10;;;27.00;37.70;;;;;;5017256;28;20444;-62
2022/05/16 10:44:06;;;;;;;5.47;3.40;;;27.10;37.80;;;;;;5017628;28;20426;-62
2022/05/16 10:46:39;;;;;;;8.23;3.50;;;27.00;37.70;;;;;;5017182;28;20449;-60
2022/05/16 10:49:11;;;;;;;5.57;3.97;;;27.10;37.80;;;;;;5015228;28;20524;-61
2022/05/16 10:51:47;;;;;;;9.83;3.67;;;27.30;37.70;;;;;;5015921;28;20470;-59
2022/05/16 10:54:17;;;;;;;10.60;3.97;;;27.30;37.60;;;;;;5013914;28;20869;-62
2022/05/16 10:57:13;;;;;;;8.17;3.90;;;27.30;37.50;;;;;;5015587;28;20548;-61
2022/05/16 11:00:07;;;;;;;6.37;3.43;;;27.10;37.60;;;;;;5014067;28;21011;-61
2022/05/16 11:03:25;;;;;;;8.30;4.30;;;27.10;37.90;;;;;;4992182;28;20570;-57
2022/05/16 11:06:06;;;;;;;4.73;3.13;;;27.30;37.80;;;;;;4914105;29;20446;-61
2022/05/16 11:08:39;;;;;;;5.80;3.77;;;27.30;37.80;;;;;;4918286;29;20474;-62
2022/05/16 11:11:14;;;;;;;5.40;3.10;;;27.20;37.90;;;;;;4969436;28;20533;-62
2022/05/16 11:13:47;;;;;;;7.40;3.30;;;27.10;38.20;;;;;;5002891;28;20879;-62
2022/05/16 11:16:19;;;;;;;8.60;3.90;;;27.00;38.40;;;;;;5010721;28;20458;-60
2022/05/16 11:18:52;;;;;;;5.30;3.37;;;27.10;38.50;;;;;;5018184;28;20469;-63
2022/05/16 11:21:29;;;;;;;6.77;4.17;;;27.10;38.40;;;;;;5009016;28;20496;-64
2022/05/16 11:24:05;;;;;;;8.83;3.67;;;27.40;38.30;;;;;;4993809;28;20470;-62
2022/05/16 11:26:40;;;;;;;4.80;3.60;;;27.70;37.90;;;;;;5003057;28;20430;-62
2022/05/16 11:29:19;;;;;;;5.60;3.83;;;27.90;37.70;;;;;;5015478;28;20473;-63
2022/05/16 11:32:01;;;;;;;7.73;3.70;;;28.20;37.30;;;;;;5014559;28;20497;-64
2022/05/16 11:34:36;;;;;;;5.67;3.90;;;28.40;36.80;;;;;;5012860;28;20441;-63
2022/05/16 11:37:18;;;;;;;6.30;3.87;;;28.40;36.80;;;;;;5014287;28;20437;-63
2022/05/16 11:39:52;;;;;;;6.20;3.87;;;28.60;36.70;;;;;;4998417;28;20466;-62
2022/05/16 11:42:28;;;;;;;6.03;3.63;;;28.90;36.50;;;;;;4993783;28;20509;-63
2022/05/16 11:45:07;;;;;;;7.10;4.27;;;29.00;36.30;;;;;;4994241;28;20461;-64
2022/05/16 11:47:46;;;;;;;5.30;3.00;;;29.20;36.20;;;;;;5012677;28;20921;-64
2022/05/16 11:50:22;;;;;;;5.80;3.10;;;29.40;36.00;;;;;;5013737;28;20512;-63
2022/05/16 11:52:55;;;;;;;10.30;4.30;;;29.60;35.80;;;;;;5014941;28;20433;-63
2022/05/16 12:00:59;;;;;;;6.47;4.20;;;29.30;36.00;;;;;;5005258;28;20442;-63
2022/05/16 12:03:37;;;;;;;4.70;3.33;;;29.10;36.10;;;;;;4997250;28;20454;-62
2022/05/16 12:06:25;;;;;;;4.83;3.60;;;29.00;36.30;;;;;;4997374;28;20458;-61
2022/05/16 12:09:20;;;;;;;5.00;3.20;;;28.70;36.70;;;;;;4998196;28;20470;-63
2022/05/16 12:11:53;;;;;;;6.73;3.27;;;28.50;37.70;;;;;;4996729;28;20467;-63
2022/05/16 12:14:28;;;;;;;6.77;3.50;;;28.40;37.40;;;;;;4994431;28;20435;-64
2022/05/16 12:17:17;;;;;;;7.43;3.87;;;28.20;37.50;;;;;;4996830;28;20434;-61
2022/05/16 12:19:52;;;;;;;6.17;3.20;;;28.10;37.80;;;;;;4995292;28;20982;-63
2022/05/16 12:22:24;;;;;;;5.13;3.70;;;28.00;38.00;;;;;;4994407;28;20456;-64
2022/05/16 12:25:10;;;;;;;6.40;3.93;;;27.90;38.20;;;;;;4994589;28;20427;-62
2022/05/16 12:27:40;;;;;;;4.57;3.50;;;27.70;38.40;;;;;;4997366;28;20886;-64
2022/05/16 12:30:10;;;;;;;5.63;3.60;;;27.60;38.70;;;;;;5016292;28;20504;-64
2022/05/16 12:32:51;;;;;;;9.60;4.27;;;27.50;39.10;;;;;;5018864;28;20461;-63
2022/05/16 12:35:38;;;;;;;8.83;3.57;;;27.50;39.30;;;;;;5018566;28;20430;-62
2022/05/16 12:38:07;;;;;;;7.57;3.77;;;27.70;39.30;;;;;;5017295;28;21045;-61
2022/05/16 12:41:00;;;;;;;4.33;3.90;;;27.80;39.10;;;;;;5016879;28;20445;-62
2022/05/16 12:43:42;;;;;;;5.20;3.50;;;28.00;38.90;;;;;;5018727;28;20430;-65
2022/05/16 12:46:25;;;;;;;7.20;3.97;;;28.10;38.80;;;;;;5021728;28;20940;-60
2022/05/16 12:49:25;;;;;;;10.23;3.53;;;28.20;38.70;;;;;;5019668;28;20473;-63
2022/05/16 12:51:59;;;;;;;5.03;3.60;;;28.40;38.50;;;;;;5019425;28;20519;-61
2022/05/16 12:55:04;;;;;;;8.30;3.40;;;28.50;38.30;;;;;;5020232;28;20486;-62
2022/05/16 12:57:57;;;;;;;4.30;3.50;;;28.70;38.20;;;;;;4998263;28;20454;-61
2022/05/16 13:00:28;;;;;;;7.17;3.40;;;28.90;37.70;;;;;;5019252;28;20430;-61
2022/05/16 13:03:14;;;;;;;5.97;3.23;;;29.00;37.50;;;;;;5017655;28;20437;-60
2022/05/16 13:05:47;;;;;;;6.00;3.37;;;29.10;37.40;;;;;;5017821;28;20481;-62
2022/05/16 13:08:33;;;;;;;7.43;3.50;;;29.10;37.50;;;;;;5018345;28;20560;-61
2022/05/16 13:11:12;;;;;;;9.70;5.37;;;29.00;37.60;;;;;;5017191;28;20505;-61
2022/05/16 13:14:05;;;;;;;10.23;4.47;;;29.00;37.80;;;;;;5018847;28;20441;-62
2022/05/16 13:16:35;;;;;;;9.13;4.00;;;29.00;37.90;;;;;;5018246;28;20434;-61
2022/05/16 13:19:08;;;;;;;7.63;3.93;;;28.90;37.80;;;;;;5018688;28;20516;-62
2022/05/16 13:21:38;;;;;;;6.10;3.23;;;29.00;37.90;;;;;;5019090;28;20422;-61
2022/05/16 13:24:13;;;;;;;4.80;3.67;;;29.00;37.90;;;;;;5018379;28;20436;-61
2022/05/16 13:29:33;;;;;;;5.07;3.30;;;28.70;38.10;;;;;;5017800;28;20504;-62
2022/05/16 13:32:09;;;;;;;11.37;3.93;;;28.50;38.60;;;;;;5017355;28;20997;-61
2022/05/16 13:34:43;;;;;;;5.83;3.87;;;28.20;38.90;;;;;;5017540;28;20469;-61
2022/05/16 13:37:11;;;;;;;4.53;3.73;;;28.00;39.20;;;;;;5018373;28;20439;-62
2022/05/16 13:39:42;;;;;;;5.30;3.73;;;27.70;39.80;;;;;;5019077;28;20845;-62
2022/05/16 13:42:10;;;;;;;7.70;4.20;;;27.60;40.10;;;;;;5018672;28;20809;-62
2022/05/16 13:44:39;;;;;;;7.70;4.07;;;27.60;40.30;;;;;;5018695;28;20474;-61
2022/05/16 13:47:09;;;;;;;5.67;3.63;;;27.60;40.30;;;;;;5017824;28;20449;-61
2022/05/16 13:49:36;;;;;;;8.50;3.90;;;27.60;40.50;;;;;;5018260;28;20854;-61
2022/05/16 13:52:04;;;;;;;5.03;3.33;;;27.50;40.60;;;;;;5018260;28;20549;-62
2022/05/16 13:54:33;;;;;;;6.20;4.07;;;27.50;40.80;;;;;;5017832;28;20465;-61
2022/05/16 13:57:07;;;;;;;4.90;3.63;;;27.60;41.00;;;;;;5017572;28;20477;-61
2022/05/16 13:59:36;;;;;;;4.10;3.60;;;27.60;41.30;;;;;;5017886;28;20465;-61
2022/05/16 14:02:09;;;;;;;9.63;4.17;;;27.40;41.70;;;;;;5030458;22;20522;-62
2022/05/16 14:04:39;;;;;;;5.87;3.60;;;27.40;42.20;;;;;;5016069;28;20829;-62
2022/05/16 14:07:12;;;;;;;5.20;3.70;;;27.40;42.60;;;;;;5015452;28;20498;-61
2022/05/16 14:09:45;;;;;;;7.20;3.10;;;27.30;42.90;;;;;;5015280;28;20442;-61
2022/05/16 14:12:17;;;;;;;6.30;4.07;;;27.40;43.40;;;;;;5015292;28;20482;-64